Time;durP1;ratioP1;P1;durP2;ratioP2;P2;SDS_P1;SDS_P2;PMS_P1;PMS_P2;Temp;Humidity;BMP_temperature;BMP_pressure;BME280_temperature;BME280_humidity;BME280_pressure;Samples;Min_cycle;Max_cycle;Signal;HPM_P1;HPM_P2
2022/10/18 00:00:24;;;;;;;51.28;22.90;;;;;;;;;;5096807;28;20503;-76
2022/10/18 00:02:50;;;;;;;53.72;25.70;;;;;;;;;;5117999;27;20042;-76
2022/10/18 00:05:16;;;;;;;47.70;24.45;;;;;;;;;;5116452;27;20039;-76
2022/10/18 00:07:42;;;;;;;55.63;26.13;;;;;;;;;;5119528;27;20429;-76
2022/10/18 00:10:08;;;;;;;57.67;27.00;;;;;;;;;;5099615;27;20483;-76
2022/10/18 00:12:35;;;;;;;57.20;24.60;;;;;;;;;;5117211;27;20499;-76
2022/10/18 00:15:01;;;;;;;67.15;29.20;;;;;;;;;;5112429;27;20391;-76
2022/10/18 00:17:27;;;;;;;57.30;26.15;;;;;;;;;;5117523;27;20043;-76
2022/10/18 00:19:54;;;;;;;49.65;24.67;;;;;;;;;;5116701;27;20031;-76
2022/10/18 00:22:20;;;;;;;55.85;26.10;;;;;;;;;;5116583;27;20084;-76
2022/10/18 00:24:46;;;;;;;50.08;25.70;;;;;;;;;;5129061;27;20058;-76
2022/10/18 00:27:12;;;;;;;65.90;28.83;;;;;;;;;;5137026;27;20487;-76
2022/10/18 00:29:38;;;;;;;55.40;27.38;;;;;;;;;;5115645;27;20543;-76
2022/10/18 00:32:04;;;;;;;63.53;27.27;;;;;;;;;;5116540;27;20045;-75
2022/10/18 00:34:30;;;;;;;60.67;28.92;;;;;;;;;;5117257;27;20091;-76
2022/10/18 00:36:56;;;;;;;58.92;27.95;;;;;;;;;;5099952;27;20050;-76
2022/10/18 00:39:23;;;;;;;67.45;28.73;;;;;;;;;;5113681;27;20066;-76
2022/10/18 00:41:49;;;;;;;58.25;26.98;;;;;;;;;;5116328;27;20095;-76
2022/10/18 00:44:15;;;;;;;73.80;30.40;;;;;;;;;;5115572;27;20039;-76
2022/10/18 00:46:43;;;;;;;53.25;25.63;;;;;;;;;;5116752;27;20039;-76
2022/10/18 00:49:12;;;;;;;81.15;30.42;;;;;;;;;;5115395;27;20047;-76
2022/10/18 00:51:41;;;;;;;60.50;26.77;;;;;;;;;;5116205;27;20039;-76
2022/10/18 00:54:07;;;;;;;59.75;28.52;;;;;;;;;;5134211;27;20070;-76
2022/10/18 00:56:33;;;;;;;56.33;28.15;;;;;;;;;;5135034;27;20062;-76
2022/10/18 00:59:00;;;;;;;58.63;25.17;;;;;;;;;;5117063;27;20043;-76
2022/10/18 01:01:26;;;;;;;48.63;25.25;;;;;;;;;;5101255;27;20031;-76
2022/10/18 01:03:52;;;;;;;49.50;23.50;;;;;;;;;;5115509;27;20043;-76
2022/10/18 01:06:18;;;;;;;69.90;28.27;;;;;;;;;;5090905;27;20475;-77
2022/10/18 01:08:44;;;;;;;92.43;31.73;;;;;;;;;;5115932;27;20387;-76
2022/10/18 01:11:18;;;;;;;51.10;23.77;;;;;;;;;;5099493;27;20487;-76
2022/10/18 01:14:00;;;;;;;46.38;24.38;;;;;;;;;;5101587;27;20444;-76
2022/10/18 01:16:46;;;;;;;49.63;24.92;;;;;;;;;;5115907;27;20062;-76
2022/10/18 01:19:12;;;;;;;;;;;;;;;;;;5115558;27;20081;-76
2022/10/18 01:21:50;;;;;;;191.50;30.30;;;;;;;;;;5138091;27;19937;-76
2022/10/18 01:24:25;;;;;;;53.00;20.88;;;;;;;;;;5097851;27;20038;-77
2022/10/18 01:26:54;;;;;;;63.75;26.75;;;;;;;;;;5116339;27;20035;-71
2022/10/18 01:29:39;;;;;;;44.50;23.55;;;;;;;;;;5114855;27;20039;-71
2022/10/18 01:32:19;;;;;;;64.45;24.92;;;;;;;;;;5118526;27;20046;-71
2022/10/18 01:34:47;;;;;;;205.13;26.33;;;;;;;;;;5118164;27;20073;-70
2022/10/18 01:37:14;;;;;;;132.60;22.10;;;;;;;;;;5114841;27;20384;-71
2022/10/18 01:39:43;;;;;;;254.80;31.00;;;;;;;;;;5114928;27;20039;-70
2022/10/18 01:42:11;;;;;;;135.00;26.58;;;;;;;;;;5111668;27;20030;-70
2022/10/18 01:44:38;;;;;;;302.25;38.00;;;;;;;;;;5115114;27;20039;-71
2022/10/18 01:47:06;;;;;;;173.60;31.85;;;;;;;;;;5115976;27;20039;-71
2022/10/18 01:49:32;;;;;;;193.00;26.65;;;;;;;;;;5116353;27;20046;-71
2022/10/18 01:51:58;;;;;;;278.83;34.33;;;;;;;;;;5114832;28;20396;-76
2022/10/18 01:54:28;;;;;;;263.65;34.38;;;;;;;;;;5114467;28;20421;-77
2022/10/18 01:57:00;;;;;;;132.80;24.83;;;;;;;;;;5115349;27;20559;-76
2022/10/18 01:59:44;;;;;;;186.90;27.92;;;;;;;;;;5121743;27;20089;-77
2022/10/18 02:02:10;;;;;;;222.38;33.60;;;;;;;;;;5113176;27;20035;-76
2022/10/18 02:04:55;;;;;;;49.45;19.75;;;;;;;;;;5097842;27;20046;-76
2022/10/18 02:07:32;;;;;;;168.88;25.58;;;;;;;;;;5113997;27;20035;-76
2022/10/18 02:10:10;;;;;;;158.02;31.75;;;;;;;;;;5115649;28;20077;-76
2022/10/18 02:12:37;;;;;;;168.48;29.45;;;;;;;;;;5132943;28;20566;-76
2022/10/18 02:15:04;;;;;;;100.65;20.55;;;;;;;;;;5114619;28;20035;-76
2022/10/18 02:17:31;;;;;;;71.30;18.35;;;;;;;;;;5114001;28;20039;-77
2022/10/18 02:19:57;;;;;;;99.70;30.50;;;;;;;;;;5116840;28;20046;-77
2022/10/18 02:22:25;;;;;;;105.60;28.83;;;;;;;;;;5122767;28;20046;-76
2022/10/18 02:24:53;;;;;;;49.75;22.30;;;;;;;;;;5114447;28;20039;-77
2022/10/18 02:27:19;;;;;;;87.75;25.60;;;;;;;;;;5132383;28;20043;-77
2022/10/18 02:29:45;;;;;;;125.32;27.30;;;;;;;;;;5115485;27;20047;-76
2022/10/18 02:32:17;;;;;;;130.50;32.90;;;;;;;;;;5146327;27;20035;-76
2022/10/18 02:34:53;;;;;;;85.55;27.42;;;;;;;;;;5114977;28;20074;-77
2022/10/18 02:37:20;;;;;;;127.72;30.55;;;;;;;;;;5113875;28;20042;-77
2022/10/18 02:39:47;;;;;;;119.07;30.48;;;;;;;;;;5120493;27;20436;-76
2022/10/18 02:42:14;;;;;;;116.80;28.63;;;;;;;;;;5116855;28;20092;-76
2022/10/18 02:44:40;;;;;;;78.57;26.58;;;;;;;;;;5097470;28;20427;-77
2022/10/18 02:47:07;;;;;;;230.95;36.03;;;;;;;;;;5114326;28;20043;-77
2022/10/18 02:49:33;;;;;;;133.05;29.55;;;;;;;;;;5097485;27;20061;-77
2022/10/18 02:51:59;;;;;;;259.63;38.53;;;;;;;;;;5091886;27;20050;-77
2022/10/18 02:54:25;;;;;;;361.83;42.95;;;;;;;;;;5115891;28;20039;-77
2022/10/18 02:56:51;;;;;;;306.92;41.95;;;;;;;;;;5113987;28;20130;-77
2022/10/18 02:59:17;;;;;;;318.73;44.33;;;;;;;;;;5113661;28;20035;-77
2022/10/18 03:01:43;;;;;;;283.00;41.60;;;;;;;;;;5099448;27;20039;-77
2022/10/18 03:04:09;;;;;;;348.25;45.20;;;;;;;;;;5115995;27;20036;-77
2022/10/18 03:06:36;;;;;;;359.38;46.35;;;;;;;;;;5117561;27;20168;-77
2022/10/18 03:09:03;;;;;;;310.42;44.05;;;;;;;;;;5088916;28;20051;-77
2022/10/18 03:11:29;;;;;;;279.88;42.03;;;;;;;;;;5100144;27;20031;-77
2022/10/18 03:13:55;;;;;;;165.90;36.17;;;;;;;;;;5124819;27;20517;-77
2022/10/18 03:16:21;;;;;;;312.88;42.28;;;;;;;;;;5099638;27;20426;-77
2022/10/18 03:18:47;;;;;;;204.68;38.50;;;;;;;;;;5117695;27;20522;-77
2022/10/18 03:21:14;;;;;;;406.75;47.78;;;;;;;;;;5100606;27;20047;-77
2022/10/18 03:23:41;;;;;;;272.17;43.67;;;;;;;;;;5121379;27;20035;-77
2022/10/18 03:26:07;;;;;;;542.42;52.95;;;;;;;;;;5101017;27;20038;-77
2022/10/18 03:28:33;;;;;;;229.45;39.47;;;;;;;;;;5106521;27;20122;-77
2022/10/18 03:31:03;;;;;;;370.13;44.17;;;;;;;;;;5135940;27;20061;-77
2022/10/18 03:33:29;;;;;;;538.17;53.75;;;;;;;;;;5118484;27;20027;-77
2022/10/18 03:35:55;;;;;;;399.95;50.13;;;;;;;;;;5100640;27;20491;-78
2022/10/18 03:38:22;;;;;;;401.88;46.08;;;;;;;;;;5117266;27;20047;-77
2022/10/18 03:40:48;;;;;;;277.42;41.50;;;;;;;;;;5130196;27;20031;-77
2022/10/18 03:43:14;;;;;;;492.38;53.78;;;;;;;;;;5117377;27;20551;-77
2022/10/18 03:45:40;;;;;;;433.25;46.17;;;;;;;;;;5102399;27;20396;-77
2022/10/18 03:48:06;;;;;;;219.98;37.40;;;;;;;;;;5117213;27;20039;-77
2022/10/18 03:50:32;;;;;;;332.45;43.70;;;;;;;;;;5127024;27;20042;-77
2022/10/18 03:52:58;;;;;;;271.85;40.53;;;;;;;;;;5100143;27;20068;-78
2022/10/18 03:55:24;;;;;;;728.10;57.08;;;;;;;;;;5117446;27;20039;-77
2022/10/18 03:57:50;;;;;;;633.80;55.10;;;;;;;;;;5116547;27;20050;-77
2022/10/18 04:00:17;;;;;;;339.52;40.63;;;;;;;;;;5119757;27;20395;-77
2022/10/18 04:02:43;;;;;;;367.70;42.05;;;;;;;;;;5116745;27;20597;-77
2022/10/18 04:05:09;;;;;;;300.25;38.53;;;;;;;;;;5118726;27;20472;-77
2022/10/18 04:07:35;;;;;;;231.65;36.95;;;;;;;;;;5122104;27;20513;-77
2022/10/18 04:10:01;;;;;;;264.77;35.20;;;;;;;;;;5100074;27;20604;-72
2022/10/18 04:12:27;;;;;;;188.80;33.17;;;;;;;;;;5119925;27;20078;-71
2022/10/18 04:14:53;;;;;;;339.80;38.35;;;;;;;;;;5097591;28;20042;-72
2022/10/18 04:17:20;;;;;;;159.40;26.95;;;;;;;;;;5135317;27;20035;-71
2022/10/18 04:19:46;;;;;;;471.38;41.80;;;;;;;;;;5131856;27;20064;-72
2022/10/18 04:22:12;;;;;;;426.83;38.88;;;;;;;;;;5109363;27;20419;-71
2022/10/18 04:24:38;;;;;;;329.88;37.25;;;;;;;;;;5120325;27;20499;-71
2022/10/18 04:27:05;;;;;;;351.50;34.78;;;;;;;;;;5100727;28;20051;-71
2022/10/18 04:29:31;;;;;;;167.38;22.98;;;;;;;;;;5108963;27;20488;-71
2022/10/18 04:31:57;;;;;;;264.08;24.95;;;;;;;;;;5116353;27;21335;-71
2022/10/18 04:34:23;;;;;;;101.53;14.70;;;;;;;;;;5104317;27;20491;-71
2022/10/18 04:36:49;;;;;;;407.23;37.35;;;;;;;;;;5095828;27;20912;-71
2022/10/18 04:39:15;;;;;;;373.17;36.03;;;;;;;;;;5081315;27;20437;-72
2022/10/18 04:41:41;;;;;;;162.30;25.50;;;;;;;;;;5115807;27;20062;-71
2022/10/18 04:44:08;;;;;;;322.40;35.67;;;;;;;;;;5111931;27;20054;-71
2022/10/18 04:46:34;;;;;;;273.17;33.55;;;;;;;;;;5082287;27;20373;-71
2022/10/18 04:49:00;;;;;;;337.08;36.72;;;;;;;;;;5115505;27;20043;-71
2022/10/18 04:51:27;;;;;;;199.38;30.17;;;;;;;;;;5115832;27;20100;-71
2022/10/18 04:53:53;;;;;;;272.10;33.08;;;;;;;;;;5115407;27;20041;-71
2022/10/18 04:56:19;;;;;;;104.28;20.33;;;;;;;;;;5107719;27;20130;-77
2022/10/18 04:58:46;;;;;;;79.65;20.08;;;;;;;;;;5102066;28;20039;-77
2022/10/18 05:01:12;;;;;;;239.85;31.95;;;;;;;;;;5096757;27;20035;-77
2022/10/18 05:03:38;;;;;;;272.88;34.80;;;;;;;;;;5116890;27;20114;-77
2022/10/18 05:06:04;;;;;;;135.23;29.92;;;;;;;;;;5097800;28;20094;-77
2022/10/18 05:08:31;;;;;;;213.68;35.00;;;;;;;;;;5099382;27;20476;-77
2022/10/18 05:10:57;;;;;;;145.35;27.70;;;;;;;;;;5091190;27;20039;-77
2022/10/18 05:13:24;;;;;;;220.43;30.60;;;;;;;;;;5095813;28;20050;-76
2022/10/18 05:15:50;;;;;;;256.02;33.22;;;;;;;;;;5108594;27;20039;-77
2022/10/18 05:18:16;;;;;;;240.05;32.88;;;;;;;;;;5086994;28;20044;-77
2022/10/18 05:20:42;;;;;;;100.70;22.05;;;;;;;;;;5094659;28;20385;-77
2022/10/18 05:23:11;;;;;;;200.88;30.48;;;;;;;;;;5097219;28;20043;-77
2022/10/18 05:25:41;;;;;;;272.50;32.22;;;;;;;;;;5104502;27;20042;-76
2022/10/18 05:28:07;;;;;;;123.88;24.08;;;;;;;;;;5093972;28;20035;-76
2022/10/18 05:30:33;;;;;;;254.60;31.27;;;;;;;;;;5092037;27;20042;-76
2022/10/18 05:32:59;;;;;;;182.18;28.05;;;;;;;;;;5099455;27;20112;-76
2022/10/18 05:35:25;;;;;;;244.70;30.25;;;;;;;;;;5117532;27;20040;-76
2022/10/18 05:37:51;;;;;;;200.27;28.52;;;;;;;;;;5102235;27;20043;-76
2022/10/18 05:40:18;;;;;;;185.98;27.38;;;;;;;;;;5105006;27;20031;-78
2022/10/18 05:42:44;;;;;;;218.45;29.33;;;;;;;;;;5098045;27;20445;-77
2022/10/18 05:45:10;;;;;;;174.57;25.45;;;;;;;;;;5097799;27;20050;-78
2022/10/18 05:47:36;;;;;;;130.40;24.10;;;;;;;;;;5103218;27;20119;-77
2022/10/18 05:50:02;;;;;;;63.92;16.00;;;;;;;;;;5117828;27;20047;-82
2022/10/18 05:52:28;;;;;;;229.98;26.83;;;;;;;;;;5135282;27;20415;-78
2022/10/18 05:54:54;;;;;;;100.78;19.23;;;;;;;;;;5122701;27;20453;-77
2022/10/18 05:57:20;;;;;;;173.15;22.40;;;;;;;;;;5115151;27;20499;-77
2022/10/18 05:59:46;;;;;;;232.52;27.05;;;;;;;;;;5096481;27;20042;-76
2022/10/18 06:02:12;;;;;;;151.93;21.27;;;;;;;;;;5100724;28;20048;-77
2022/10/18 06:04:39;;;;;;;195.75;25.90;;;;;;;;;;5106204;27;20039;-77
2022/10/18 06:07:09;;;;;;;206.32;26.10;;;;;;;;;;5106878;28;20058;-71
2022/10/18 06:09:35;;;;;;;136.13;21.92;;;;;;;;;;5116679;27;20039;-71
2022/10/18 06:12:02;;;;;;;129.20;21.55;;;;;;;;;;5097285;28;20040;-71
2022/10/18 06:14:28;;;;;;;142.38;24.08;;;;;;;;;;5099358;28;20072;-71
2022/10/18 06:16:55;;;;;;;120.75;22.52;;;;;;;;;;5096047;27;20124;-71
2022/10/18 06:19:24;;;;;;;71.45;19.58;;;;;;;;;;5098923;27;20052;-71
2022/10/18 06:21:50;;;;;;;19.55;12.02;;;;;;;;;;5093419;28;20067;-76
2022/10/18 06:24:17;;;;;;;124.68;21.17;;;;;;;;;;5112421;28;20040;-78
2022/10/18 06:26:43;;;;;;;44.72;14.25;;;;;;;;;;5094302;28;20036;-78
2022/10/18 06:29:10;;;;;;;27.60;13.20;;;;;;;;;;5112016;28;20471;-77
2022/10/18 06:31:36;;;;;;;76.57;17.77;;;;;;;;;;5142267;27;20434;-77
2022/10/18 06:34:03;;;;;;;88.13;19.33;;;;;;;;;;5107420;28;20126;-78
2022/10/18 06:36:30;;;;;;;153.65;19.42;;;;;;;;;;5107212;28;20617;-77
2022/10/18 06:38:56;;;;;;;91.43;17.73;;;;;;;;;;5101030;27;20043;-77
2022/10/18 06:41:23;;;;;;;148.98;20.75;;;;;;;;;;5102255;27;20039;-77
2022/10/18 06:43:49;;;;;;;101.43;19.33;;;;;;;;;;5099632;27;20058;-77
2022/10/18 06:46:15;;;;;;;106.90;17.88;;;;;;;;;;5097866;28;20039;-77
2022/10/18 06:48:41;;;;;;;69.03;17.80;;;;;;;;;;5128819;27;20076;-78
2022/10/18 06:51:08;;;;;;;162.60;23.95;;;;;;;;;;5117675;27;20034;-78
2022/10/18 06:53:36;;;;;;;52.28;18.00;;;;;;;;;;5120010;27;20042;-77
2022/10/18 06:56:03;;;;;;;64.05;18.73;;;;;;;;;;5110972;27;20404;-76
2022/10/18 06:58:30;;;;;;;32.63;15.27;;;;;;;;;;5112403;27;20096;-72
2022/10/18 07:00:56;;;;;;;46.03;18.45;;;;;;;;;;5099394;27;20039;-73
2022/10/18 07:03:23;;;;;;;42.13;15.93;;;;;;;;;;5110910;27;20039;-78
2022/10/18 07:05:50;;;;;;;580.50;56.30;;;;;;;;;;5107920;28;20027;-78
2022/10/18 07:08:16;;;;;;;122.95;25.30;;;;;;;;;;5097384;28;20039;-78
2022/10/18 07:10:42;;;;;;;41.97;18.15;;;;;;;;;;5096644;27;20101;-79
2022/10/18 07:13:08;;;;;;;41.58;17.58;;;;;;;;;;5084308;27;20419;-78
2022/10/18 07:15:37;;;;;;;32.00;17.58;;;;;;;;;;5116543;27;20085;-78
2022/10/18 07:18:03;;;;;;;27.02;17.05;;;;;;;;;;5099084;28;20056;-79
2022/10/18 07:20:29;;;;;;;21.55;14.90;;;;;;;;;;5101303;27;20058;-78
2022/10/18 07:22:56;;;;;;;20.60;12.57;;;;;;;;;;5107403;27;20043;-74
2022/10/18 07:25:22;;;;;;;16.90;11.32;;;;;;;;;;5104142;27;20118;-74
2022/10/18 07:27:48;;;;;;;13.30;10.32;;;;;;;;;;5099804;27;20085;-75
2022/10/18 07:30:14;;;;;;;13.57;9.57;;;;;;;;;;5101619;27;20040;-73
2022/10/18 07:32:40;;;;;;;12.52;9.20;;;;;;;;;;5115414;27;20051;-74
2022/10/18 07:35:06;;;;;;;14.25;9.90;;;;;;;;;;5110016;28;20050;-74
2022/10/18 07:37:32;;;;;;;11.15;9.32;;;;;;;;;;5109520;28;20048;-73
2022/10/18 07:39:58;;;;;;;11.60;9.20;;;;;;;;;;5116784;27;20042;-74
2022/10/18 07:42:24;;;;;;;13.95;9.10;;;;;;;;;;5135065;27;20032;-74
2022/10/18 07:44:50;;;;;;;11.50;7.72;;;;;;;;;;5107178;27;20031;-74
2022/10/18 07:47:17;;;;;;;13.45;8.20;;;;;;;;;;5115293;27;20039;-74
2022/10/18 07:49:43;;;;;;;13.00;7.95;;;;;;;;;;5090608;27;20407;-73
2022/10/18 07:52:10;;;;;;;11.70;8.05;;;;;;;;;;5108070;27;20054;-74
2022/10/18 07:54:36;;;;;;;12.13;7.78;;;;;;;;;;5094672;27;20043;-74
2022/10/18 07:57:03;;;;;;;11.07;7.57;;;;;;;;;;5106067;28;20056;-81
2022/10/18 07:59:30;;;;;;;16.63;8.10;;;;;;;;;;5078178;28;20089;-81
2022/10/18 08:01:56;;;;;;;11.95;6.55;;;;;;;;;;5101133;27;20047;-81
2022/10/18 08:04:22;;;;;;;10.23;6.28;;;;;;;;;;5075415;28;20126;-81
2022/10/18 08:06:48;;;;;;;14.02;7.50;;;;;;;;;;5114395;28;20046;-81
2022/10/18 08:09:14;;;;;;;10.15;7.05;;;;;;;;;;5078875;27;20488;-81
2022/10/18 08:11:40;;;;;;;12.25;6.85;;;;;;;;;;5100559;27;20046;-81
2022/10/18 08:14:06;;;;;;;12.77;7.10;;;;;;;;;;5124945;27;20066;-81
2022/10/18 08:16:32;;;;;;;11.13;6.75;;;;;;;;;;5099965;27;20112;-81
2022/10/18 08:18:58;;;;;;;10.48;6.55;;;;;;;;;;5096172;28;20035;-80
2022/10/18 08:21:24;;;;;;;10.35;6.40;;;;;;;;;;5114461;27;20091;-80
2022/10/18 08:23:52;;;;;;;11.38;6.03;;;;;;;;;;5096836;27;20047;-79
2022/10/18 08:26:20;;;;;;;9.13;5.25;;;;;;;;;;5119958;27;20103;-80
2022/10/18 08:28:47;;;;;;;9.23;4.95;;;;;;;;;;5095415;28;20051;-80
2022/10/18 08:31:16;;;;;;;14.10;5.50;;;;;;;;;;5078141;28;20035;-80
2022/10/18 08:33:42;;;;;;;7.82;3.72;;;;;;;;;;5105257;27;20047;-80
2022/10/18 08:36:10;;;;;;;6.93;3.28;;;;;;;;;;5078384;28;20040;-81
2022/10/18 08:38:37;;;;;;;7.72;2.92;;;;;;;;;;5109791;27;20047;-81
2022/10/18 08:41:21;;;;;;;10.85;3.63;;;;;;;;;;5112871;27;20043;-81
2022/10/18 08:43:56;;;;;;;8.35;3.38;;;;;;;;;;5130596;27;20035;-81
2022/10/18 08:46:22;;;;;;;7.85;3.10;;;;;;;;;;5096625;27;20065;-81
2022/10/18 08:48:51;;;;;;;9.95;2.80;;;;;;;;;;5108871;27;20057;-80
2022/10/18 08:51:29;;;;;;;8.90;2.92;;;;;;;;;;5092563;28;20039;-81
2022/10/18 08:54:11;;;;;;;5.53;2.25;;;;;;;;;;5107681;27;20082;-80
2022/10/18 08:56:38;;;;;;;8.57;2.30;;;;;;;;;;5100129;27;20090;-80
2022/10/18 08:59:09;;;;;;;6.22;2.30;;;;;;;;;;5099123;27;20047;-80
2022/10/18 09:01:38;;;;;;;7.78;2.40;;;;;;;;;;5094572;27;20043;-79
2022/10/18 09:04:23;;;;;;;5.53;1.98;;;;;;;;;;5132454;27;20061;-80
2022/10/18 09:06:49;;;;;;;6.77;2.10;;;;;;;;;;5095700;28;20123;-79
2022/10/18 09:09:26;;;;;;;6.15;1.83;;;;;;;;;;5105825;27;20039;-79
2022/10/18 09:12:05;;;;;;;9.82;2.38;;;;;;;;;;5095610;28;20395;-77
2022/10/18 09:14:34;;;;;;;8.05;1.77;;;;;;;;;;5118300;27;20038;-78
2022/10/18 09:17:21;;;;;;;6.10;1.55;;;;;;;;;;5098459;28;20392;-79
2022/10/18 09:20:10;;;;;;;6.53;1.80;;;;;;;;;;5094500;28;20515;-77
2022/10/18 09:22:51;;;;;;;8.40;1.98;;;;;;;;;;5084985;27;20053;-78
2022/10/18 09:25:19;;;;;;;7.93;1.80;;;;;;;;;;5102479;27;20467;-76
2022/10/18 09:28:09;;;;;;;8.43;1.60;;;;;;;;;;5094448;28;20692;-77
2022/10/18 09:30:54;;;;;;;9.13;2.55;;;;;;;;;;5086950;27;20082;-78
2022/10/18 09:33:29;;;;;;;8.32;1.73;;;;;;;;;;5096429;28;20123;-75
2022/10/18 09:36:00;;;;;;;10.18;1.65;;;;;;;;;;5119563;27;20035;-75
2022/10/18 09:38:32;;;;;;;7.15;1.55;;;;;;;;;;5118816;27;20053;-75
2022/10/18 09:41:00;;;;;;;10.35;2.15;;;;;;;;;;5132590;27;20031;-75
2022/10/18 09:43:34;;;;;;;7.43;1.80;;;;;;;;;;5114834;27;20491;-76
2022/10/18 09:46:01;;;;;;;10.20;1.70;;;;;;;;;;5115967;27;20035;-69
2022/10/18 09:48:42;;;;;;;7.97;1.90;;;;;;;;;;5124252;27;20043;-69
2022/10/18 09:51:16;;;;;;;8.93;1.63;;;;;;;;;;5136928;27;20042;-70
2022/10/18 09:53:42;;;;;;;8.82;1.67;;;;;;;;;;5108582;27;20108;-78
2022/10/18 09:56:10;;;;;;;6.93;1.70;;;;;;;;;;5094389;28;20500;-78
2022/10/18 09:58:45;;;;;;;7.38;1.80;;;;;;;;;;5112669;27;20046;-79
2022/10/18 10:01:13;;;;;;;8.15;1.70;;;;;;;;;;5124364;27;20063;-79
2022/10/18 10:03:40;;;;;;;10.07;2.15;;;;;;;;;;5139274;27;20042;-78
2022/10/18 10:06:15;;;;;;;9.48;1.83;;;;;;;;;;5114742;28;20083;-78
2022/10/18 10:08:49;;;;;;;9.52;1.85;;;;;;;;;;5097810;28;20039;-78
2022/10/18 10:11:33;;;;;;;10.50;1.90;;;;;;;;;;5115782;28;20378;-79
2022/10/18 10:14:10;;;;;;;8.40;1.73;;;;;;;;;;5114172;28;20403;-79
2022/10/18 10:16:42;;;;;;;10.95;1.88;;;;;;;;;;5114049;28;20038;-79
2022/10/18 10:19:15;;;;;;;8.98;1.52;;;;;;;;;;5114583;28;20047;-80
2022/10/18 10:21:41;;;;;;;9.30;2.28;;;;;;;;;;5098909;28;20039;-78
2022/10/18 10:24:16;;;;;;;9.13;1.70;;;;;;;;;;5106323;28;20053;-78
2022/10/18 10:26:42;;;;;;;8.38;1.92;;;;;;;;;;5125726;27;20464;-79
2022/10/18 10:29:27;;;;;;;9.02;1.80;;;;;;;;;;5097207;28;20043;-79
2022/10/18 10:32:03;;;;;;;9.85;1.70;;;;;;;;;;5123135;27;20091;-79
2022/10/18 10:34:29;;;;;;;7.15;1.70;;;;;;;;;;5115041;28;20050;-79
2022/10/18 10:36:56;;;;;;;8.57;1.85;;;;;;;;;;5114922;28;20402;-79
2022/10/18 10:39:23;;;;;;;8.57;1.70;;;;;;;;;;5120485;28;20100;-79
2022/10/18 10:41:49;;;;;;;8.52;2.25;;;;;;;;;;5105600;28;20088;-79
2022/10/18 10:44:17;;;;;;;6.57;1.67;;;;;;;;;;5108346;28;20032;-79
2022/10/18 10:46:43;;;;;;;11.43;1.67;;;;;;;;;;5098782;28;20487;-79
2022/10/18 10:49:17;;;;;;;7.75;1.75;;;;;;;;;;5092493;28;20104;-79
2022/10/18 10:51:43;;;;;;;;;;;;;;;;;;5100237;27;20054;-79
2022/10/18 10:54:17;;;;;;;8.68;1.80;;;;;;;;;;5116403;28;19915;-79
2022/10/18 10:56:49;;;;;;;8.45;1.85;;;;;;;;;;5134076;28;20054;-78
2022/10/18 10:59:17;;;;;;;7.65;1.92;;;;;;;;;;5099078;28;20072;-78
2022/10/18 11:01:44;;;;;;;7.15;1.40;;;;;;;;;;5100430;28;20048;-79
2022/10/18 11:04:40;;;;;;;10.20;1.92;;;;;;;;;;5122820;28;20565;-79
2022/10/18 11:07:09;;;;;;;7.53;1.88;;;;;;;;;;5094139;28;20463;-79
2022/10/18 11:09:49;;;;;;;7.45;1.60;;;;;;;;;;5115407;27;20038;-79
2022/10/18 11:12:32;;;;;;;6.85;1.55;;;;;;;;;;5097532;28;20031;-79
2022/10/18 11:15:01;;;;;;;8.77;1.30;;;;;;;;;;5121072;28;20039;-78
2022/10/18 11:17:43;;;;;;;6.35;1.40;;;;;;;;;;5114047;28;20039;-79
2022/10/18 11:20:15;;;;;;;6.95;1.52;;;;;;;;;;5115578;27;20121;-79
2022/10/18 11:22:50;;;;;;;5.43;1.20;;;;;;;;;;5099882;28;20050;-78
2022/10/18 11:25:16;;;;;;;8.73;1.52;;;;;;;;;;5098411;27;20050;-78
2022/10/18 11:27:49;;;;;;;11.73;1.95;;;;;;;;;;5117915;27;20039;-79
2022/10/18 11:30:15;;;;;;;7.03;1.45;;;;;;;;;;5117998;27;20496;-78
2022/10/18 11:32:47;;;;;;;7.43;1.40;;;;;;;;;;5134865;27;20031;-79
2022/10/18 11:35:33;;;;;;;7.93;1.45;;;;;;;;;;5137689;27;20039;-79
2022/10/18 11:38:02;;;;;;;6.75;1.45;;;;;;;;;;5086495;27;20047;-79
2022/10/18 11:40:47;;;;;;;8.85;1.60;;;;;;;;;;5117481;27;20434;-79
2022/10/18 11:43:25;;;;;;;7.35;1.35;;;;;;;;;;5118510;27;20067;-78
2022/10/18 11:45:57;;;;;;;5.30;1.30;;;;;;;;;;5136084;27;20171;-78
2022/10/18 11:48:24;;;;;;;7.82;1.40;;;;;;;;;;5100217;27;20372;-77
2022/10/18 11:50:56;;;;;;;7.15;1.27;;;;;;;;;;5117343;27;20047;-79
2022/10/18 11:53:25;;;;;;;8.38;1.52;;;;;;;;;;5117041;27;20043;-78
2022/10/18 11:56:09;;;;;;;8.75;1.40;;;;;;;;;;5117535;27;20487;-78
2022/10/18 11:58:38;;;;;;;8.18;1.73;;;;;;;;;;5121439;27;20051;-79
2022/10/18 12:01:19;;;;;;;5.38;1.35;;;;;;;;;;5135406;27;20035;-78
2022/10/18 12:03:57;;;;;;;4.90;1.30;;;;;;;;;;5115089;27;20092;-78
2022/10/18 12:06:25;;;;;;;7.50;1.52;;;;;;;;;;5115168;27;20088;-78
2022/10/18 12:08:58;;;;;;;5.97;1.30;;;;;;;;;;5140394;27;20038;-78
2022/10/18 12:11:27;;;;;;;8.95;1.40;;;;;;;;;;5115760;27;20372;-78
2022/10/18 12:13:56;;;;;;;8.30;1.70;;;;;;;;;;5115307;27;20043;-79
2022/10/18 12:16:23;;;;;;;8.18;1.60;;;;;;;;;;5114722;27;20047;-77
2022/10/18 12:18:49;;;;;;;8.23;1.85;;;;;;;;;;5116518;27;20096;-77
2022/10/18 12:21:18;;;;;;;6.32;1.23;;;;;;;;;;5127895;27;20031;-77
2022/10/18 12:23:51;;;;;;;11.77;1.77;;;;;;;;;;5134249;27;20068;-78
2022/10/18 12:26:17;;;;;;;8.07;1.38;;;;;;;;;;5114593;27;20491;-78
2022/10/18 12:29:10;;;;;;;11.70;1.33;;;;;;;;;;5117897;27;20488;-77
2022/10/18 12:31:48;;;;;;;8.18;1.70;;;;;;;;;;5077306;28;20048;-77
2022/10/18 12:34:25;;;;;;;7.95;1.50;;;;;;;;;;5119841;27;20509;-78
2022/10/18 12:37:09;;;;;;;7.45;1.50;;;;;;;;;;5095946;28;20035;-77
2022/10/18 12:39:43;;;;;;;8.93;1.60;;;;;;;;;;5127491;27;20042;-76
2022/10/18 12:42:20;;;;;;;13.13;1.65;;;;;;;;;;5112571;27;20035;-77
2022/10/18 12:44:46;;;;;;;8.65;2.00;;;;;;;;;;5097190;27;20115;-76
2022/10/18 12:47:22;;;;;;;9.02;2.15;;;;;;;;;;5119541;27;20407;-77
2022/10/18 12:49:55;;;;;;;12.00;1.58;;;;;;;;;;5113922;28;20115;-75
2022/10/18 12:52:22;;;;;;;8.55;1.73;;;;;;;;;;5095935;28;20042;-78
2022/10/18 12:55:03;;;;;;;8.93;1.73;;;;;;;;;;5109641;27;20555;-78
2022/10/18 12:57:49;;;;;;;11.70;2.45;;;;;;;;;;5085672;27;20054;-77
2022/10/18 13:00:35;;;;;;;9.60;1.50;;;;;;;;;;5095546;28;20074;-74
2022/10/18 13:03:22;;;;;;;9.32;1.90;;;;;;;;;;5085706;27;20126;-77
2022/10/18 13:05:51;;;;;;;10.80;1.63;;;;;;;;;;5137728;27;20264;-76
2022/10/18 13:08:26;;;;;;;10.80;1.55;;;;;;;;;;5122356;27;20035;-76
2022/10/18 13:11:11;;;;;;;8.25;1.77;;;;;;;;;;5103142;28;20546;-76
2022/10/18 13:13:43;;;;;;;11.38;2.17;;;;;;;;;;5105113;27;20057;-76
2022/10/18 13:16:29;;;;;;;12.77;2.45;;;;;;;;;;5144851;27;20038;-76
2022/10/18 13:18:58;;;;;;;15.70;1.90;;;;;;;;;;5073148;28;20492;-72
2022/10/18 13:21:43;;;;;;;7.35;1.30;;;;;;;;;;5110879;27;20051;-70
2022/10/18 13:24:09;;;;;;;9.73;1.67;;;;;;;;;;5115453;27;20488;-69
2022/10/18 13:27:04;;;;;;;10.05;1.50;;;;;;;;;;5143468;27;20487;-70
2022/10/18 13:29:30;;;;;;;9.40;1.38;;;;;;;;;;5027017;27;20427;-69
2022/10/18 13:32:17;;;;;;;9.38;1.38;;;;;;;;;;5115273;27;20035;-69
2022/10/18 13:34:43;;;;;;;14.55;1.85;;;;;;;;;;5139797;27;20035;-70
2022/10/18 13:37:09;;;;;;;8.55;1.60;;;;;;;;;;5105970;27;20070;-70
2022/10/18 13:39:37;;;;;;;7.75;1.63;;;;;;;;;;5114974;27;20039;-69
2022/10/18 13:42:03;;;;;;;8.60;1.67;;;;;;;;;;5114625;27;20122;-69
2022/10/18 13:44:32;;;;;;;13.82;1.85;;;;;;;;;;5112297;27;20063;-68
2022/10/18 13:46:58;;;;;;;7.55;1.40;;;;;;;;;;5117652;27;20042;-69
2022/10/18 13:49:24;;;;;;;9.20;1.42;;;;;;;;;;5098411;27;20108;-70
2022/10/18 13:52:02;;;;;;;8.35;1.45;;;;;;;;;;5112305;27;20077;-69
2022/10/18 13:54:47;;;;;;;7.38;1.17;;;;;;;;;;5094188;28;20043;-68
2022/10/18 13:57:36;;;;;;;10.90;1.52;;;;;;;;;;5092813;27;20043;-69
2022/10/18 14:00:28;;;;;;;9.73;1.33;;;;;;;;;;5097186;28;20043;-70
2022/10/18 14:03:13;;;;;;;10.20;1.50;;;;;;;;;;5071556;28;20051;-68
2022/10/18 14:05:45;;;;;;;10.63;1.52;;;;;;;;;;5108092;27;20031;-69
2022/10/18 14:08:17;;;;;;;10.65;2.03;;;;;;;;;;5116713;28;20039;-69
2022/10/18 14:10:52;;;;;;;9.38;1.50;;;;;;;;;;5110679;28;20032;-69
2022/10/18 14:13:24;;;;;;;9.65;1.38;;;;;;;;;;5113684;28;20043;-68
2022/10/18 14:15:52;;;;;;;10.38;1.30;;;;;;;;;;5111672;28;20036;-68
2022/10/18 14:18:30;;;;;;;10.02;1.40;;;;;;;;;;5122916;28;20380;-68
2022/10/18 14:21:03;;;;;;;9.88;1.50;;;;;;;;;;5107391;28;20042;-69
2022/10/18 14:23:32;;;;;;;12.50;1.67;;;;;;;;;;5100498;28;20036;-68
2022/10/18 14:26:09;;;;;;;8.00;1.50;;;;;;;;;;5097589;28;20405;-69
2022/10/18 14:28:35;;;;;;;8.38;1.48;;;;;;;;;;5100695;28;20039;-69
2022/10/18 14:31:05;;;;;;;9.27;1.17;;;;;;;;;;5109497;28;20039;-69
2022/10/18 14:33:36;;;;;;;9.23;1.40;;;;;;;;;;5104974;28;20040;-69
2022/10/18 14:36:07;;;;;;;10.00;1.65;;;;;;;;;;5073674;28;20036;-69
2022/10/18 14:38:34;;;;;;;13.82;1.60;;;;;;;;;;5105696;28;20040;-70